sensor_id;sensor_type;location;lat;lon;timestamp;P1;durP1;ratioP1;P2;durP2;ratioP2
25191;SDS011;13143;50.924;5.320;2023-07-08T00:00:19;11.65;;;7.00;;
25191;SDS011;13143;50.924;5.320;2023-07-08T00:02:47;10.73;;;6.88;;
25191;SDS011;13143;50.924;5.320;2023-07-08T00:05:14;12.02;;;6.47;;
25191;SDS011;13143;50.924;5.320;2023-07-08T00:07:41;10.07;;;6.20;;
25191;SDS011;13143;50.924;5.320;2023-07-08T00:10:29;10.52;;;6.78;;
25191;SDS011;13143;50.924;5.320;2023-07-08T00:12:56;12.30;;;6.80;;
25191;SDS011;13143;50.924;5.320;2023-07-08T00:15:30;11.02;;;6.25;;
25191;SDS011;13143;50.924;5.320;2023-07-08T00:17:58;11.10;;;6.18;;
25191;SDS011;13143;50.924;5.320;2023-07-08T00:20:32;14.15;;;6.93;;
25191;SDS011;13143;50.924;5.320;2023-07-08T00:23:02;11.20;;;6.97;;
25191;SDS011;13143;50.924;5.320;2023-07-08T00:25:29;13.55;;;6.97;;
25191;SDS011;13143;50.924;5.320;2023-07-08T00:27:56;11.23;;;7.13;;
25191;SDS011;13143;50.924;5.320;2023-07-08T00:30:24;12.60;;;7.25;;
25191;SDS011;13143;50.924;5.320;2023-07-08T00:32:52;10.18;;;6.45;;
25191;SDS011;13143;50.924;5.320;2023-07-08T00:35:24;9.85;;;6.95;;
25191;SDS011;13143;50.924;5.320;2023-07-08T00:40:52;12.43;;;6.72;;
25191;SDS011;13143;50.924;5.320;2023-07-08T00:46:24;12.98;;;7.18;;
25191;SDS011;13143;50.924;5.320;2023-07-08T00:51:26;15.25;;;7.72;;
25191;SDS011;13143;50.924;5.320;2023-07-08T00:53:52;13.43;;;6.90;;
25191;SDS011;13143;50.924;5.320;2023-07-08T00:56:20;15.85;;;7.60;;
25191;SDS011;13143;50.924;5.320;2023-07-08T00:59:05;11.07;;;6.55;;
25191;SDS011;13143;50.924;5.320;2023-07-08T01:01:35;13.88;;;6.82;;
25191;SDS011;13143;50.924;5.320;2023-07-08T01:04:11;11.18;;;6.78;;
25191;SDS011;13143;50.924;5.320;2023-07-08T01:06:41;11.48;;;6.78;;
25191;SDS011;13143;50.924;5.320;2023-07-08T01:09:11;13.00;;;7.43;;
25191;SDS011;13143;50.924;5.320;2023-07-08T01:11:40;10.45;;;6.80;;
25191;SDS011;13143;50.924;5.320;2023-07-08T01:14:07;12.20;;;6.95;;
25191;SDS011;13143;50.924;5.320;2023-07-08T01:16:37;11.35;;;6.88;;
25191;SDS011;13143;50.924;5.320;2023-07-08T01:19:04;13.80;;;7.10;;
25191;SDS011;13143;50.924;5.320;2023-07-08T01:21:33;14.02;;;7.10;;
25191;SDS011;13143;50.924;5.320;2023-07-08T01:24:00;10.02;;;7.10;;
25191;SDS011;13143;50.924;5.320;2023-07-08T01:26:28;13.88;;;7.28;;
25191;SDS011;13143;50.924;5.320;2023-07-08T01:28:56;15.02;;;7.63;;
25191;SDS011;13143;50.924;5.320;2023-07-08T01:31:23;12.13;;;7.15;;
25191;SDS011;13143;50.924;5.320;2023-07-08T01:33:49;14.65;;;7.20;;
25191;SDS011;13143;50.924;5.320;2023-07-08T01:36:17;11.73;;;7.30;;
25191;SDS011;13143;50.924;5.320;2023-07-08T01:38:43;10.75;;;6.88;;
25191;SDS011;13143;50.924;5.320;2023-07-08T01:41:11;14.32;;;7.88;;
25191;SDS011;13143;50.924;5.320;2023-07-08T01:43:42;14.18;;;7.80;;
25191;SDS011;13143;50.924;5.320;2023-07-08T01:46:14;11.27;;;7.85;;
25191;SDS011;13143;50.924;5.320;2023-07-08T01:48:46;13.25;;;8.13;;
25191;SDS011;13143;50.924;5.320;2023-07-08T01:51:15;14.55;;;8.13;;
25191;SDS011;13143;50.924;5.320;2023-07-08T01:53:42;14.05;;;7.93;;
25191;SDS011;13143;50.924;5.320;2023-07-08T01:56:10;16.15;;;7.80;;
25191;SDS011;13143;50.924;5.320;2023-07-08T01:58:38;11.50;;;7.30;;
25191;SDS011;13143;50.924;5.320;2023-07-08T02:01:05;14.65;;;7.93;;
25191;SDS011;13143;50.924;5.320;2023-07-08T02:03:31;11.35;;;7.55;;
25191;SDS011;13143;50.924;5.320;2023-07-08T02:05:57;14.70;;;7.35;;
25191;SDS011;13143;50.924;5.320;2023-07-08T02:08:24;12.88;;;7.40;;
25191;SDS011;13143;50.924;5.320;2023-07-08T02:10:51;14.40;;;7.57;;
25191;SDS011;13143;50.924;5.320;2023-07-08T02:13:19;12.30;;;7.32;;
25191;SDS011;13143;50.924;5.320;2023-07-08T02:15:46;12.57;;;7.40;;
25191;SDS011;13143;50.924;5.320;2023-07-08T02:18:13;10.68;;;8.25;;
25191;SDS011;13143;50.924;5.320;2023-07-08T02:20:39;13.55;;;7.65;;
25191;SDS011;13143;50.924;5.320;2023-07-08T02:23:05;11.57;;;7.90;;
25191;SDS011;13143;50.924;5.320;2023-07-08T02:25:31;14.43;;;7.88;;
25191;SDS011;13143;50.924;5.320;2023-07-08T02:27:57;13.13;;;7.75;;
25191;SDS011;13143;50.924;5.320;2023-07-08T02:30:23;15.80;;;7.97;;
25191;SDS011;13143;50.924;5.320;2023-07-08T02:32:49;13.95;;;7.43;;
25191;SDS011;13143;50.924;5.320;2023-07-08T02:35:23;18.02;;;8.00;;
25191;SDS011;13143;50.924;5.320;2023-07-08T02:37:53;12.43;;;8.07;;
25191;SDS011;13143;50.924;5.320;2023-07-08T02:40:21;13.32;;;7.18;;
25191;SDS011;13143;50.924;5.320;2023-07-08T02:42:48;11.43;;;6.97;;
25191;SDS011;13143;50.924;5.320;2023-07-08T02:45:15;17.67;;;6.97;;
25191;SDS011;13143;50.924;5.320;2023-07-08T02:47:42;13.70;;;7.72;;
25191;SDS011;13143;50.924;5.320;2023-07-08T02:50:09;14.52;;;7.18;;
25191;SDS011;13143;50.924;5.320;2023-07-08T02:52:36;15.27;;;7.82;;
25191;SDS011;13143;50.924;5.320;2023-07-08T02:55:02;13.05;;;7.28;;
25191;SDS011;13143;50.924;5.320;2023-07-08T02:57:28;11.15;;;7.57;;
25191;SDS011;13143;50.924;5.320;2023-07-08T02:59:54;11.77;;;6.93;;
25191;SDS011;13143;50.924;5.320;2023-07-08T03:02:21;13.30;;;7.50;;
25191;SDS011;13143;50.924;5.320;2023-07-08T03:04:48;19.35;;;8.10;;
25191;SDS011;13143;50.924;5.320;2023-07-08T03:07:16;12.10;;;6.85;;
25191;SDS011;13143;50.924;5.320;2023-07-08T03:09:43;12.98;;;7.65;;
25191;SDS011;13143;50.924;5.320;2023-07-08T03:12:10;12.20;;;7.43;;
25191;SDS011;13143;50.924;5.320;2023-07-08T03:14:36;14.25;;;7.75;;
25191;SDS011;13143;50.924;5.320;2023-07-08T03:17:03;12.48;;;7.30;;
25191;SDS011;13143;50.924;5.320;2023-07-08T03:19:30;15.07;;;8.05;;
25191;SDS011;13143;50.924;5.320;2023-07-08T03:21:57;12.90;;;7.40;;
25191;SDS011;13143;50.924;5.320;2023-07-08T03:24:24;13.82;;;7.32;;
25191;SDS011;13143;50.924;5.320;2023-07-08T03:26:50;15.20;;;7.70;;
25191;SDS011;13143;50.924;5.320;2023-07-08T03:29:19;15.45;;;8.00;;
25191;SDS011;13143;50.924;5.320;2023-07-08T03:31:46;15.02;;;7.78;;
25191;SDS011;13143;50.924;5.320;2023-07-08T03:34:13;12.50;;;7.47;;
25191;SDS011;13143;50.924;5.320;2023-07-08T03:36:43;11.60;;;7.50;;
25191;SDS011;13143;50.924;5.320;2023-07-08T03:39:17;12.73;;;8.05;;
25191;SDS011;13143;50.924;5.320;2023-07-08T03:41:45;14.88;;;7.53;;
25191;SDS011;13143;50.924;5.320;2023-07-08T03:44:11;12.50;;;7.68;;
25191;SDS011;13143;50.924;5.320;2023-07-08T03:46:38;13.95;;;7.95;;
25191;SDS011;13143;50.924;5.320;2023-07-08T03:49:05;12.43;;;7.28;;
25191;SDS011;13143;50.924;5.320;2023-07-08T03:51:32;9.38;;;7.00;;
25191;SDS011;13143;50.924;5.320;2023-07-08T03:54:01;12.52;;;7.75;;
25191;SDS011;13143;50.924;5.320;2023-07-08T03:56:27;14.23;;;8.02;;
25191;SDS011;13143;50.924;5.320;2023-07-08T03:58:53;14.15;;;7.47;;
25191;SDS011;13143;50.924;5.320;2023-07-08T04:01:21;12.18;;;7.47;;
25191;SDS011;13143;50.924;5.320;2023-07-08T04:03:50;15.82;;;8.43;;
25191;SDS011;13143;50.924;5.320;2023-07-08T04:06:18;16.15;;;8.00;;
25191;SDS011;13143;50.924;5.320;2023-07-08T04:08:44;16.33;;;7.18;;
25191;SDS011;13143;50.924;5.320;2023-07-08T04:11:12;10.68;;;7.20;;
25191;SDS011;13143;50.924;5.320;2023-07-08T04:13:40;11.68;;;7.38;;
25191;SDS011;13143;50.924;5.320;2023-07-08T04:16:07;11.27;;;7.00;;
25191;SDS011;13143;50.924;5.320;2023-07-08T04:18:38;10.00;;;7.78;;
25191;SDS011;13143;50.924;5.320;2023-07-08T04:21:04;14.30;;;8.45;;
25191;SDS011;13143;50.924;5.320;2023-07-08T04:23:32;15.18;;;7.85;;
25191;SDS011;13143;50.924;5.320;2023-07-08T04:25:58;12.38;;;7.72;;
25191;SDS011;13143;50.924;5.320;2023-07-08T04:28:24;13.93;;;7.90;;
25191;SDS011;13143;50.924;5.320;2023-07-08T04:30:50;14.32;;;7.53;;
25191;SDS011;13143;50.924;5.320;2023-07-08T04:33:17;14.15;;;7.80;;
25191;SDS011;13143;50.924;5.320;2023-07-08T04:35:43;10.15;;;7.40;;
25191;SDS011;13143;50.924;5.320;2023-07-08T04:38:23;13.38;;;7.63;;
25191;SDS011;13143;50.924;5.320;2023-07-08T04:40:50;18.55;;;8.48;;
25191;SDS011;13143;50.924;5.320;2023-07-08T04:43:18;16.40;;;8.48;;
25191;SDS011;13143;50.924;5.320;2023-07-08T04:45:45;13.57;;;8.15;;
25191;SDS011;13143;50.924;5.320;2023-07-08T04:48:16;14.55;;;7.88;;
25191;SDS011;13143;50.924;5.320;2023-07-08T04:50:45;14.10;;;7.68;;
25191;SDS011;13143;50.924;5.320;2023-07-08T04:53:16;12.80;;;8.25;;
25191;SDS011;13143;50.924;5.320;2023-07-08T04:55:46;12.55;;;7.97;;
25191;SDS011;13143;50.924;5.320;2023-07-08T04:58:18;11.10;;;7.88;;
25191;SDS011;13143;50.924;5.320;2023-07-08T05:00:44;14.27;;;7.93;;
25191;SDS011;13143;50.924;5.320;2023-07-08T05:03:10;15.02;;;7.60;;
25191;SDS011;13143;50.924;5.320;2023-07-08T05:05:36;11.80;;;7.82;;
25191;SDS011;13143;50.924;5.320;2023-07-08T05:08:02;17.83;;;8.23;;
25191;SDS011;13143;50.924;5.320;2023-07-08T05:10:28;14.38;;;7.88;;
25191;SDS011;13143;50.924;5.320;2023-07-08T05:12:54;18.05;;;8.27;;
25191;SDS011;13143;50.924;5.320;2023-07-08T05:15:21;13.63;;;8.13;;
25191;SDS011;13143;50.924;5.320;2023-07-08T05:17:47;14.25;;;7.57;;
25191;SDS011;13143;50.924;5.320;2023-07-08T05:20:15;13.00;;;7.90;;
25191;SDS011;13143;50.924;5.320;2023-07-08T05:22:41;11.80;;;7.78;;
25191;SDS011;13143;50.924;5.320;2023-07-08T05:25:08;16.65;;;9.52;;
25191;SDS011;13143;50.924;5.320;2023-07-08T05:27:34;13.38;;;8.30;;
25191;SDS011;13143;50.924;5.320;2023-07-08T05:30:01;11.23;;;8.70;;
25191;SDS011;13143;50.924;5.320;2023-07-08T05:32:29;13.68;;;8.75;;
25191;SDS011;13143;50.924;5.320;2023-07-08T05:34:55;13.82;;;8.80;;
25191;SDS011;13143;50.924;5.320;2023-07-08T05:37:21;15.40;;;9.27;;
25191;SDS011;13143;50.924;5.320;2023-07-08T05:39:51;19.95;;;9.65;;
25191;SDS011;13143;50.924;5.320;2023-07-08T05:42:19;14.40;;;9.00;;
25191;SDS011;13143;50.924;5.320;2023-07-08T05:44:46;15.05;;;9.15;;
25191;SDS011;13143;50.924;5.320;2023-07-08T05:47:12;15.15;;;8.93;;
25191;SDS011;13143;50.924;5.320;2023-07-08T05:49:39;16.73;;;9.30;;
25191;SDS011;13143;50.924;5.320;2023-07-08T05:52:05;16.58;;;9.63;;
25191;SDS011;13143;50.924;5.320;2023-07-08T05:54:37;14.93;;;9.68;;
25191;SDS011;13143;50.924;5.320;2023-07-08T05:57:04;19.30;;;11.32;;
25191;SDS011;13143;50.924;5.320;2023-07-08T05:59:31;20.35;;;11.25;;
25191;SDS011;13143;50.924;5.320;2023-07-08T06:01:57;14.20;;;10.35;;
25191;SDS011;13143;50.924;5.320;2023-07-08T06:04:23;16.80;;;10.77;;
25191;SDS011;13143;50.924;5.320;2023-07-08T06:06:49;19.83;;;10.40;;
25191;SDS011;13143;50.924;5.320;2023-07-08T06:09:15;17.98;;;10.10;;
25191;SDS011;13143;50.924;5.320;2023-07-08T06:11:41;16.88;;;10.05;;
25191;SDS011;13143;50.924;5.320;2023-07-08T06:14:08;17.45;;;9.90;;
25191;SDS011;13143;50.924;5.320;2023-07-08T06:16:34;15.02;;;9.57;;
25191;SDS011;13143;50.924;5.320;2023-07-08T06:19:00;17.80;;;10.10;;
25191;SDS011;13143;50.924;5.320;2023-07-08T06:21:26;15.77;;;10.77;;
25191;SDS011;13143;50.924;5.320;2023-07-08T06:23:52;17.67;;;10.02;;
25191;SDS011;13143;50.924;5.320;2023-07-08T06:26:18;15.85;;;9.73;;
25191;SDS011;13143;50.924;5.320;2023-07-08T06:28:44;16.65;;;9.73;;
25191;SDS011;13143;50.924;5.320;2023-07-08T06:31:10;16.33;;;8.98;;
25191;SDS011;13143;50.924;5.320;2023-07-08T06:33:37;16.55;;;9.55;;
25191;SDS011;13143;50.924;5.320;2023-07-08T06:36:03;17.15;;;10.70;;
25191;SDS011;13143;50.924;5.320;2023-07-08T06:38:29;18.13;;;11.02;;
25191;SDS011;13143;50.924;5.320;2023-07-08T06:40:55;17.95;;;11.38;;
25191;SDS011;13143;50.924;5.320;2023-07-08T06:43:22;17.92;;;11.50;;
25191;SDS011;13143;50.924;5.320;2023-07-08T06:45:48;20.23;;;11.85;;
25191;SDS011;13143;50.924;5.320;2023-07-08T06:48:14;19.10;;;12.60;;
25191;SDS011;13143;50.924;5.320;2023-07-08T06:50:41;21.10;;;12.82;;
25191;SDS011;13143;50.924;5.320;2023-07-08T06:53:08;21.10;;;12.73;;
25191;SDS011;13143;50.924;5.320;2023-07-08T06:55:35;22.95;;;12.80;;
25191;SDS011;13143;50.924;5.320;2023-07-08T06:58:01;19.50;;;12.98;;
25191;SDS011;13143;50.924;5.320;2023-07-08T07:00:27;20.27;;;13.32;;
25191;SDS011;13143;50.924;5.320;2023-07-08T07:02:53;19.95;;;13.15;;
25191;SDS011;13143;50.924;5.320;2023-07-08T07:05:19;22.58;;;13.93;;
25191;SDS011;13143;50.924;5.320;2023-07-08T07:07:45;29.63;;;13.70;;
25191;SDS011;13143;50.924;5.320;2023-07-08T07:10:11;21.23;;;13.15;;
25191;SDS011;13143;50.924;5.320;2023-07-08T07:12:37;25.50;;;13.77;;
25191;SDS011;13143;50.924;5.320;2023-07-08T07:15:03;21.27;;;12.90;;
25191;SDS011;13143;50.924;5.320;2023-07-08T07:17:30;20.05;;;12.90;;
25191;SDS011;13143;50.924;5.320;2023-07-08T07:19:56;22.92;;;13.07;;
25191;SDS011;13143;50.924;5.320;2023-07-08T07:22:23;19.10;;;12.85;;
25191;SDS011;13143;50.924;5.320;2023-07-08T07:24:49;21.40;;;12.70;;
25191;SDS011;13143;50.924;5.320;2023-07-08T07:27:15;20.75;;;13.15;;
25191;SDS011;13143;50.924;5.320;2023-07-08T07:29:42;24.58;;;12.45;;
25191;SDS011;13143;50.924;5.320;2023-07-08T07:32:10;22.23;;;12.57;;
25191;SDS011;13143;50.924;5.320;2023-07-08T07:34:37;21.27;;;13.10;;
25191;SDS011;13143;50.924;5.320;2023-07-08T07:37:04;20.35;;;12.73;;
25191;SDS011;13143;50.924;5.320;2023-07-08T07:39:41;20.13;;;12.07;;
25191;SDS011;13143;50.924;5.320;2023-07-08T07:42:07;23.95;;;12.80;;
25191;SDS011;13143;50.924;5.320;2023-07-08T07:44:34;17.95;;;12.38;;
25191;SDS011;13143;50.924;5.320;2023-07-08T07:47:01;20.92;;;12.32;;
25191;SDS011;13143;50.924;5.320;2023-07-08T07:49:28;19.38;;;12.07;;
25191;SDS011;13143;50.924;5.320;2023-07-08T07:51:54;18.42;;;12.85;;
25191;SDS011;13143;50.924;5.320;2023-07-08T07:54:21;18.92;;;11.85;;
25191;SDS011;13143;50.924;5.320;2023-07-08T07:56:47;21.67;;;11.52;;
25191;SDS011;13143;50.924;5.320;2023-07-08T07:59:13;18.23;;;12.55;;
25191;SDS011;13143;50.924;5.320;2023-07-08T08:01:39;20.73;;;12.20;;
25191;SDS011;13143;50.924;5.320;2023-07-08T08:04:07;28.20;;;13.23;;
25191;SDS011;13143;50.924;5.320;2023-07-08T08:06:34;23.63;;;13.02;;
25191;SDS011;13143;50.924;5.320;2023-07-08T08:09:00;20.35;;;12.32;;
25191;SDS011;13143;50.924;5.320;2023-07-08T08:11:26;20.48;;;12.18;;
25191;SDS011;13143;50.924;5.320;2023-07-08T08:13:52;19.05;;;11.68;;
25191;SDS011;13143;50.924;5.320;2023-07-08T08:16:19;18.08;;;11.35;;
25191;SDS011;13143;50.924;5.320;2023-07-08T08:18:46;21.63;;;12.38;;
25191;SDS011;13143;50.924;5.320;2023-07-08T08:21:12;19.75;;;11.45;;
25191;SDS011;13143;50.924;5.320;2023-07-08T08:23:39;21.45;;;11.98;;
25191;SDS011;13143;50.924;5.320;2023-07-08T08:26:05;21.73;;;12.25;;
25191;SDS011;13143;50.924;5.320;2023-07-08T08:28:31;17.15;;;11.32;;
25191;SDS011;13143;50.924;5.320;2023-07-08T08:30:57;21.58;;;11.25;;
25191;SDS011;13143;50.924;5.320;2023-07-08T08:33:23;21.30;;;13.77;;
25191;SDS011;13143;50.924;5.320;2023-07-08T08:35:52;22.30;;;11.95;;
25191;SDS011;13143;50.924;5.320;2023-07-08T08:38:18;21.17;;;11.82;;
25191;SDS011;13143;50.924;5.320;2023-07-08T08:40:44;25.55;;;11.85;;
25191;SDS011;13143;50.924;5.320;2023-07-08T08:43:23;24.08;;;11.82;;
25191;SDS011;13143;50.924;5.320;2023-07-08T08:48:33;19.42;;;12.23;;
25191;SDS011;13143;50.924;5.320;2023-07-08T08:51:13;22.27;;;12.20;;
25191;SDS011;13143;50.924;5.320;2023-07-08T08:53:41;18.77;;;11.32;;
25191;SDS011;13143;50.924;5.320;2023-07-08T08:56:24;19.38;;;11.18;;
25191;SDS011;13143;50.924;5.320;2023-07-08T08:59:07;21.15;;;11.18;;
25191;SDS011;13143;50.924;5.320;2023-07-08T09:02:00;17.30;;;11.02;;
25191;SDS011;13143;50.924;5.320;2023-07-08T09:04:32;17.30;;;10.23;;
25191;SDS011;13143;50.924;5.320;2023-07-08T09:07:06;17.65;;;9.70;;
25191;SDS011;13143;50.924;5.320;2023-07-08T09:12:33;16.80;;;10.57;;
25191;SDS011;13143;50.924;5.320;2023-07-08T09:15:00;14.90;;;10.02;;
25191;SDS011;13143;50.924;5.320;2023-07-08T09:17:37;20.33;;;10.35;;
25191;SDS011;13143;50.924;5.320;2023-07-08T09:20:06;15.60;;;9.85;;
25191;SDS011;13143;50.924;5.320;2023-07-08T09:22:57;20.10;;;10.63;;
25191;SDS011;13143;50.924;5.320;2023-07-08T09:25:52;18.58;;;10.63;;
25191;SDS011;13143;50.924;5.320;2023-07-08T09:31:08;14.52;;;10.13;;
25191;SDS011;13143;50.924;5.320;2023-07-08T09:33:41;18.48;;;10.85;;
25191;SDS011;13143;50.924;5.320;2023-07-08T09:36:18;18.85;;;10.07;;
25191;SDS011;13143;50.924;5.320;2023-07-08T09:38:48;18.73;;;11.20;;
25191;SDS011;13143;50.924;5.320;2023-07-08T09:41:37;17.00;;;10.38;;
25191;SDS011;13143;50.924;5.320;2023-07-08T09:46:52;16.33;;;10.25;;
25191;SDS011;13143;50.924;5.320;2023-07-08T09:49:20;16.88;;;9.77;;
25191;SDS011;13143;50.924;5.320;2023-07-08T09:51:57;16.67;;;9.88;;
25191;SDS011;13143;50.924;5.320;2023-07-08T09:54:24;18.27;;;10.93;;
25191;SDS011;13143;50.924;5.320;2023-07-08T09:59:20;13.90;;;10.55;;
25191;SDS011;13143;50.924;5.320;2023-07-08T10:01:49;17.00;;;10.77;;
25191;SDS011;13143;50.924;5.320;2023-07-08T10:04:15;16.35;;;9.98;;
25191;SDS011;13143;50.924;5.320;2023-07-08T10:06:44;18.25;;;10.20;;
25191;SDS011;13143;50.924;5.320;2023-07-08T10:09:14;16.63;;;10.55;;
25191;SDS011;13143;50.924;5.320;2023-07-08T10:12:03;19.65;;;10.93;;
25191;SDS011;13143;50.924;5.320;2023-07-08T10:14:38;18.52;;;10.90;;
25191;SDS011;13143;50.924;5.320;2023-07-08T10:17:15;18.45;;;10.90;;
25191;SDS011;13143;50.924;5.320;2023-07-08T10:19:44;14.90;;;10.40;;
25191;SDS011;13143;50.924;5.320;2023-07-08T10:25:08;17.83;;;10.10;;
25191;SDS011;13143;50.924;5.320;2023-07-08T10:27:51;16.55;;;10.20;;
25191;SDS011;13143;50.924;5.320;2023-07-08T10:30:23;17.65;;;10.40;;
25191;SDS011;13143;50.924;5.320;2023-07-08T10:35:50;12.55;;;9.35;;
25191;SDS011;13143;50.924;5.320;2023-07-08T10:41:21;18.90;;;10.05;;
25191;SDS011;13143;50.924;5.320;2023-07-08T10:49:38;17.77;;;10.15;;
25191;SDS011;13143;50.924;5.320;2023-07-08T10:52:14;18.40;;;10.77;;
25191;SDS011;13143;50.924;5.320;2023-07-08T11:05:43;16.20;;;10.02;;
25191;SDS011;13143;50.924;5.320;2023-07-08T11:13:31;27.55;;;9.38;;
25191;SDS011;13143;50.924;5.320;2023-07-08T11:16:06;14.15;;;8.60;;
25191;SDS011;13143;50.924;5.320;2023-07-08T11:18:50;16.05;;;9.40;;
25191;SDS011;13143;50.924;5.320;2023-07-08T11:21:25;15.20;;;9.85;;
25191;SDS011;13143;50.924;5.320;2023-07-08T11:27:38;15.60;;;9.73;;
25191;SDS011;13143;50.924;5.320;2023-07-08T11:32:05;17.40;;;10.68;;
25191;SDS011;13143;50.924;5.320;2023-07-08T11:34:37;45.47;;;37.78;;
25191;SDS011;13143;50.924;5.320;2023-07-08T11:37:04;58.03;;;35.00;;
25191;SDS011;13143;50.924;5.320;2023-07-08T11:39:33;120.13;;;51.33;;
25191;SDS011;13143;50.924;5.320;2023-07-08T11:47:50;116.57;;;48.38;;
25191;SDS011;13143;50.924;5.320;2023-07-08T11:50:20;36.78;;;16.27;;
25191;SDS011;13143;50.924;5.320;2023-07-08T11:52:59;114.40;;;33.65;;
25191;SDS011;13143;50.924;5.320;2023-07-08T11:58:26;81.32;;;22.40;;
25191;SDS011;13143;50.924;5.320;2023-07-08T12:03:48;59.70;;;24.77;;
25191;SDS011;13143;50.924;5.320;2023-07-08T12:08:53;40.75;;;25.85;;
25191;SDS011;13143;50.924;5.320;2023-07-08T12:11:24;22.70;;;13.55;;
25191;SDS011;13143;50.924;5.320;2023-07-08T12:13:58;20.40;;;10.65;;
25191;SDS011;13143;50.924;5.320;2023-07-08T12:16:26;15.27;;;9.85;;
25191;SDS011;13143;50.924;5.320;2023-07-08T12:18:54;18.52;;;9.18;;
25191;SDS011;13143;50.924;5.320;2023-07-08T12:21:23;17.20;;;9.27;;
25191;SDS011;13143;50.924;5.320;2023-07-08T12:23:52;17.65;;;9.38;;
25191;SDS011;13143;50.924;5.320;2023-07-08T12:26:18;15.80;;;8.90;;
25191;SDS011;13143;50.924;5.320;2023-07-08T12:28:44;15.95;;;8.48;;
25191;SDS011;13143;50.924;5.320;2023-07-08T12:31:15;17.02;;;8.77;;
25191;SDS011;13143;50.924;5.320;2023-07-08T12:33:43;17.08;;;8.15;;
25191;SDS011;13143;50.924;5.320;2023-07-08T12:36:18;15.27;;;8.80;;
25191;SDS011;13143;50.924;5.320;2023-07-08T12:38:46;17.73;;;9.30;;
25191;SDS011;13143;50.924;5.320;2023-07-08T12:41:22;13.80;;;9.02;;
25191;SDS011;13143;50.924;5.320;2023-07-08T12:43:59;17.52;;;8.77;;
25191;SDS011;13143;50.924;5.320;2023-07-08T12:46:27;13.90;;;8.60;;
25191;SDS011;13143;50.924;5.320;2023-07-08T12:48:54;14.98;;;8.15;;
25191;SDS011;13143;50.924;5.320;2023-07-08T12:51:24;15.75;;;7.75;;
25191;SDS011;13143;50.924;5.320;2023-07-08T12:53:52;16.13;;;7.85;;
25191;SDS011;13143;50.924;5.320;2023-07-08T12:56:20;17.52;;;8.65;;
25191;SDS011;13143;50.924;5.320;2023-07-08T12:58:52;14.02;;;8.23;;
25191;SDS011;13143;50.924;5.320;2023-07-08T13:03:50;13.45;;;7.40;;
25191;SDS011;13143;50.924;5.320;2023-07-08T13:06:24;15.15;;;9.80;;
25191;SDS011;13143;50.924;5.320;2023-07-08T13:08:54;14.85;;;8.40;;
25191;SDS011;13143;50.924;5.320;2023-07-08T13:11:29;12.63;;;8.15;;
25191;SDS011;13143;50.924;5.320;2023-07-08T13:13:57;10.77;;;8.18;;
25191;SDS011;13143;50.924;5.320;2023-07-08T13:16:29;14.57;;;8.55;;
25191;SDS011;13143;50.924;5.320;2023-07-08T13:18:59;15.07;;;8.45;;
25191;SDS011;13143;50.924;5.320;2023-07-08T13:21:26;14.48;;;9.35;;
25191;SDS011;13143;50.924;5.320;2023-07-08T13:23:53;18.10;;;9.82;;
25191;SDS011;13143;50.924;5.320;2023-07-08T13:26:20;12.52;;;8.45;;
25191;SDS011;13143;50.924;5.320;2023-07-08T13:28:48;17.92;;;9.07;;
25191;SDS011;13143;50.924;5.320;2023-07-08T13:31:19;15.15;;;9.23;;
25191;SDS011;13143;50.924;5.320;2023-07-08T13:33:50;15.82;;;9.10;;
25191;SDS011;13143;50.924;5.320;2023-07-08T13:36:20;16.88;;;9.10;;
25191;SDS011;13143;50.924;5.320;2023-07-08T13:38:49;14.18;;;8.77;;
25191;SDS011;13143;50.924;5.320;2023-07-08T13:41:20;13.15;;;9.02;;
25191;SDS011;13143;50.924;5.320;2023-07-08T13:43:47;13.32;;;8.73;;
25191;SDS011;13143;50.924;5.320;2023-07-08T13:49:29;17.65;;;9.98;;
25191;SDS011;13143;50.924;5.320;2023-07-08T13:52:06;15.95;;;9.93;;
25191;SDS011;13143;50.924;5.320;2023-07-08T13:54:45;16.05;;;9.50;;
25191;SDS011;13143;50.924;5.320;2023-07-08T13:57:24;14.50;;;9.60;;
25191;SDS011;13143;50.924;5.320;2023-07-08T13:59:56;16.17;;;9.70;;
25191;SDS011;13143;50.924;5.320;2023-07-08T14:02:24;13.50;;;8.95;;
25191;SDS011;13143;50.924;5.320;2023-07-08T14:04:53;15.48;;;9.30;;
25191;SDS011;13143;50.924;5.320;2023-07-08T14:07:21;18.73;;;9.57;;
25191;SDS011;13143;50.924;5.320;2023-07-08T14:09:49;14.13;;;9.48;;
25191;SDS011;13143;50.924;5.320;2023-07-08T14:12:15;14.43;;;9.32;;
25191;SDS011;13143;50.924;5.320;2023-07-08T14:14:42;18.08;;;9.43;;
25191;SDS011;13143;50.924;5.320;2023-07-08T14:17:08;16.98;;;9.07;;
25191;SDS011;13143;50.924;5.320;2023-07-08T14:19:37;19.25;;;8.70;;
25191;SDS011;13143;50.924;5.320;2023-07-08T14:22:09;17.33;;;8.45;;
25191;SDS011;13143;50.924;5.320;2023-07-08T14:24:46;12.80;;;7.65;;
25191;SDS011;13143;50.924;5.320;2023-07-08T14:27:12;12.98;;;7.85;;
25191;SDS011;13143;50.924;5.320;2023-07-08T14:29:39;14.20;;;7.82;;
25191;SDS011;13143;50.924;5.320;2023-07-08T14:32:22;12.15;;;7.45;;
25191;SDS011;13143;50.924;5.320;2023-07-08T14:34:53;16.10;;;7.75;;
25191;SDS011;13143;50.924;5.320;2023-07-08T14:37:22;10.43;;;6.70;;
25191;SDS011;13143;50.924;5.320;2023-07-08T14:39:48;13.00;;;7.18;;
25191;SDS011;13143;50.924;5.320;2023-07-08T14:42:16;13.48;;;6.88;;
25191;SDS011;13143;50.924;5.320;2023-07-08T14:44:44;16.48;;;7.07;;
25191;SDS011;13143;50.924;5.320;2023-07-08T14:47:14;16.15;;;7.20;;
25191;SDS011;13143;50.924;5.320;2023-07-08T14:49:42;15.70;;;6.47;;
25191;SDS011;13143;50.924;5.320;2023-07-08T14:52:08;11.27;;;6.35;;
25191;SDS011;13143;50.924;5.320;2023-07-08T14:54:35;11.05;;;6.80;;
25191;SDS011;13143;50.924;5.320;2023-07-08T14:57:01;13.60;;;5.80;;
25191;SDS011;13143;50.924;5.320;2023-07-08T14:59:30;8.73;;;6.00;;
25191;SDS011;13143;50.924;5.320;2023-07-08T15:01:58;9.45;;;6.18;;
25191;SDS011;13143;50.924;5.320;2023-07-08T15:04:24;9.73;;;6.57;;
25191;SDS011;13143;50.924;5.320;2023-07-08T15:06:51;12.45;;;5.95;;
25191;SDS011;13143;50.924;5.320;2023-07-08T15:09:20;12.88;;;6.30;;
25191;SDS011;13143;50.924;5.320;2023-07-08T15:11:46;13.35;;;6.43;;
25191;SDS011;13143;50.924;5.320;2023-07-08T15:14:19;13.80;;;6.93;;
25191;SDS011;13143;50.924;5.320;2023-07-08T15:16:47;11.38;;;6.20;;
25191;SDS011;13143;50.924;5.320;2023-07-08T15:19:15;11.30;;;6.32;;
25191;SDS011;13143;50.924;5.320;2023-07-08T15:21:41;12.10;;;6.22;;
25191;SDS011;13143;50.924;5.320;2023-07-08T15:24:08;12.10;;;6.60;;
25191;SDS011;13143;50.924;5.320;2023-07-08T15:26:42;12.93;;;5.85;;
25191;SDS011;13143;50.924;5.320;2023-07-08T15:29:21;13.25;;;6.38;;
25191;SDS011;13143;50.924;5.320;2023-07-08T15:31:48;12.27;;;5.70;;
25191;SDS011;13143;50.924;5.320;2023-07-08T15:34:19;17.95;;;6.07;;
25191;SDS011;13143;50.924;5.320;2023-07-08T15:36:47;12.45;;;5.57;;
25191;SDS011;13143;50.924;5.320;2023-07-08T15:39:13;9.55;;;5.70;;
25191;SDS011;13143;50.924;5.320;2023-07-08T15:41:40;9.93;;;5.85;;
25191;SDS011;13143;50.924;5.320;2023-07-08T15:44:08;9.50;;;6.18;;
25191;SDS011;13143;50.924;5.320;2023-07-08T15:46:37;14.38;;;7.22;;
25191;SDS011;13143;50.924;5.320;2023-07-08T15:49:14;13.05;;;6.72;;
25191;SDS011;13143;50.924;5.320;2023-07-08T15:51:42;13.32;;;6.38;;
25191;SDS011;13143;50.924;5.320;2023-07-08T15:54:09;12.40;;;6.50;;
25191;SDS011;13143;50.924;5.320;2023-07-08T15:56:36;10.32;;;8.05;;
25191;SDS011;13143;50.924;5.320;2023-07-08T15:59:03;13.90;;;6.47;;